Aérodrome :
LOGIN :

S'inscrire | Disclaimer

   EN    FR    IT 

 










Légende :    VFR   VFR Marginal   IFR   IFR Intensif   IFR Très Intensif
Visi : 
Plafond : 
>= 8 km
>= 3000ft
5 à 8 km
1000 à 3000 ft
1500m à 5 km
500 à 1000 ft
800 à 1500m
200 à 500 ft
< 800m
< 200 ft
Symboles :   Orages  Brouillard  Fortes neiges  Fortes précipitations  Vent > 20 kt
SIGMETs :   Divers  Orages  Givrage  Turbulence  Onde Orograph.  Cendres Volcan.






- Altitude de l'aérodrome : 39 ft


ETNH - Hohn AB

DERNIER METAR :
  • 172220Z AUTO VRB01KT 3100 // ////// 11/11 Q1009 ///

METARs EXPIRÉS :
  • 172120Z AUTO 10003KT 7000 // ////// 10/10 Q1009 ///
  • 172020Z 10001KT 9999 SCT065 BKN083 09/09 Q1010 BLU

TAF TAF ETNH
Valide du 17 à 23h jusqu'au 18 à 11h UTC


172210Z 1723/1811 10005KT 9999 NSW FEW008 SCT015 BKN060
TEMPO 1723/1807 12008KT 4000 -DZRA BKN007 BKN015
PROB30 1801/1807 VRB03KT 0500 FG BKN001
TEMPO 1809/1811 21010G20KT 4000 SHRA SCT010 BKN020CB CANCEL BY ETGL



MET'MAP, la Météo Aéronautique d'un coup d'oeil ! - Copyright ORBIFLY Décembre 2007 - Disclaimer

ORBIFLY MET'MAP TEAM :

Programmation & Développement : Alexandra Zaïnal
Conception & Développement : Baudouin d'Aumeries
Co-Programmation & Développement : Marc-Olivier Méhu
Soutien technique & logistique : Manuel Goepfert

Contact : metmap@orbifly.com




SOURCES & CREDITS :

   NOAA